Voo Doo — V7YS8 — position and weather

sailwx.info

Track history (hours):
 
Tides and Currents Weather Stations Pressure Air Temp Water Temp Dewpoint Dewpoint Depression Visibility Wind Speed Wind Dir Waves Ship Positions

Voo Doo

Last reported at 2018-Mar-15 04:55 UTC. Time now 2018-May-25 22:42 UTC.
Position N 26°13' W 080°03'.
Warning: this ship's position is months out of date.

Length 22 m.

Type: Sailing vessel. MMSI: 538070861.

Date/timePositionNaut miles runAvg speedWind from/ knotsBaromVisibWave heightAir tempDewpointWater temp
2018-Mar-15 04:55N 26°13' W 080°03'3 6.4
2018-Mar-15 04:27N 26°10' W 080°04'4 7.2
2018-Mar-15 03:56N 26°07' W 080°05'2 2.3
2018-Mar-15 03:08N 26°06' W 080°07'0 3.4
2018-Mar-15 02:59N 26°07' W 080°07'0 0.0
2018-Mar-14 15:16N 26°07' W 080°06'0 0.0
2018-Mar-14 14:49N 26°07' W 080°06'0 0.0
2018-Mar-14 14:22N 26°07' W 080°06'  
2018-Mar-09 22:26N 26°07' W 080°06'0 0.0
2018-Mar-09 21:59N 26°07' W 080°06'0 0.0
2018-Mar-09 21:29N 26°07' W 080°06'0 0.0
2018-Mar-09 20:59N 26°07' W 080°06'0 0.0
2018-Mar-09 20:29N 26°07' W 080°06'0 0.0
2018-Mar-09 19:56N 26°07' W 080°06'0 0.0
2018-Mar-09 19:29N 26°07' W 080°06'0 0.0
2018-Mar-09 18:59N 26°07' W 080°06'0 0.0
2018-Mar-09 18:29N 26°07' W 080°06'0 0.0
2018-Mar-09 17:44N 26°07' W 080°06'0 0.0
2018-Mar-09 17:29N 26°07' W 080°06'1 1.9
2018-Mar-09 16:53N 26°06' W 080°07'1 1.5
2018-Mar-09 16:23N 26°06' W 080°06'2 5.7
2018-Mar-09 16:00N 26°04' W 080°05'3 6.7
2018-Mar-09 15:30N 26°00' W 080°05'3 6.5
2018-Mar-09 15:00N 25°57' W 080°05'3 6.2
2018-Mar-09 14:30N 25°54' W 080°05'3 5.9
2018-Mar-09 13:59N 25°51' W 080°05'2 5.1
2018-Mar-09 13:30N 25°48' W 080°05'2 4.6
2018-Mar-09 12:59N 25°46' W 080°05'2 4.4
2018-Mar-09 12:30N 25°44' W 080°05'2 4.5
2018-Mar-09 11:59N 25°42' W 080°05'  
Track history (hours):
 
Tides and Currents Weather Stations Pressure Air Temp Water Temp Dewpoint Dewpoint Depression Visibility Wind Speed Wind Dir Waves Ship Positions

Voo Doo

Last reported at 2018-Mar-15 04:55 UTC. Time now 2018-May-25 22:43 UTC.
Position N 26°13' W 080°03'.
Warning: this ship's position is months out of date.

Length 22 m.

Type: Sailing vessel. MMSI: 538070861.

Date/timePositionNaut miles runAvg speedWind from/ knotsBaromVisibWave heightAir tempDewpointWater temp
2018-Mar-15 04:55N 26°13' W 080°03'3 6.4
2018-Mar-15 04:27N 26°10' W 080°04'4 7.2
2018-Mar-15 03:56N 26°07' W 080°05'2 2.3
2018-Mar-15 03:08N 26°06' W 080°07'0 3.4
2018-Mar-15 02:59N 26°07' W 080°07'0 0.0
2018-Mar-14 15:16N 26°07' W 080°06'0 0.0
2018-Mar-14 14:49N 26°07' W 080°06'0 0.0
2018-Mar-14 14:22N 26°07' W 080°06'  
2018-Mar-09 22:26N 26°07' W 080°06'0 0.0
2018-Mar-09 21:59N 26°07' W 080°06'0 0.0
2018-Mar-09 21:29N 26°07' W 080°06'0 0.0
2018-Mar-09 20:59N 26°07' W 080°06'0 0.0
2018-Mar-09 20:29N 26°07' W 080°06'0 0.0
2018-Mar-09 19:56N 26°07' W 080°06'0 0.0
2018-Mar-09 19:29N 26°07' W 080°06'0 0.0
2018-Mar-09 18:59N 26°07' W 080°06'0 0.0
2018-Mar-09 18:29N 26°07' W 080°06'0 0.0
2018-Mar-09 17:44N 26°07' W 080°06'0 0.0
2018-Mar-09 17:29N 26°07' W 080°06'1 1.9
2018-Mar-09 16:53N 26°06' W 080°07'1 1.5
2018-Mar-09 16:23N 26°06' W 080°06'2 5.7
2018-Mar-09 16:00N 26°04' W 080°05'3 6.7
2018-Mar-09 15:30N 26°00' W 080°05'3 6.5
2018-Mar-09 15:00N 25°57' W 080°05'3 6.2
2018-Mar-09 14:30N 25°54' W 080°05'3 5.9
2018-Mar-09 13:59N 25°51' W 080°05'2 5.1
2018-Mar-09 13:30N 25°48' W 080°05'2 4.6
2018-Mar-09 12:59N 25°46' W 080°05'2 4.4
2018-Mar-09 12:30N 25°44' W 080°05'2 4.5
2018-Mar-09 11:59N 25°42' W 080°05'  

Dump ship's entire track history